WJA1642 KFLL-CYEG
Flight info
| Callsign | WJA1642 |
|---|---|
| Flight time | N/A |
| Altitude | 36000 |
| Route | KFLL LLBOW ROOOM YOLOO LRICK JOENZ HROCK SMELZ Q116 JAWJA MGM MEMFS ARG STJ ONL KP81A DPR YEA CAMRA IGSOX JEVON KEKBI CYEG |
| Aircraft | B737/M-V/N |
Departure
| Time | N/A |
|---|---|
| Airport | Fort Lauderdale Hollywood International Airport (KFLL) |
Arrival
| Time | 2026-05-06 08:57 |
|---|---|
| Airport | Edmonton International Airport (CYEG) |
| Time | Latitude | Longitude | Altitude | Speed | Heading |
|---|---|---|---|---|---|
| 2026-05-06 03:54 | 29.06069 | -82.89682 | 36084 ft | 407 kts | 321° |
| 2026-05-06 03:54 | 29.08362 | -82.91550 | 36084 ft | 407 kts | 321° |
| 2026-05-06 03:55 | 29.12967 | -82.95308 | 36080 ft | 407 kts | 321° |
| 2026-05-06 03:55 | 29.17574 | -82.99071 | 36082 ft | 406 kts | 321° |
| 2026-05-06 03:56 | 29.22177 | -83.02835 | 36078 ft | 406 kts | 321° |
| 2026-05-06 03:56 | 29.26780 | -83.06603 | 36084 ft | 406 kts | 321° |
| 2026-05-06 03:57 | 29.31369 | -83.10362 | 36077 ft | 406 kts | 321° |
| 2026-05-06 03:57 | 29.35943 | -83.14112 | 36085 ft | 406 kts | 321° |
| 2026-05-06 03:58 | 29.40581 | -83.17920 | 36081 ft | 406 kts | 321° |
| 2026-05-06 03:58 | 29.45152 | -83.21678 | 36079 ft | 406 kts | 321° |
| 2026-05-06 03:59 | 29.49751 | -83.25464 | 36088 ft | 406 kts | 321° |
| 2026-05-06 03:59 | 29.53574 | -83.28614 | 36081 ft | 407 kts | 321° |
| 2026-05-06 04:00 | 29.58179 | -83.32412 | 36088 ft | 406 kts | 321° |
| 2026-05-06 04:00 | 29.63433 | -83.36750 | 36085 ft | 407 kts | 321° |
| 2026-05-06 04:01 | 29.67348 | -83.39987 | 36080 ft | 407 kts | 321° |
| 2026-05-06 04:01 | 29.71946 | -83.43793 | 36078 ft | 407 kts | 321° |
| 2026-05-06 04:02 | 29.76478 | -83.47548 | 36077 ft | 407 kts | 321° |
| 2026-05-06 04:02 | 29.81105 | -83.51387 | 36069 ft | 407 kts | 321° |
| 2026-05-06 04:03 | 29.85659 | -83.55169 | 36094 ft | 406 kts | 320° |
| 2026-05-06 04:03 | 29.90251 | -83.58987 | 36088 ft | 406 kts | 320° |
| 2026-05-06 04:04 | 29.94774 | -83.62752 | 36092 ft | 406 kts | 320° |
| 2026-05-06 04:04 | 29.99325 | -83.66546 | 36112 ft | 406 kts | 320° |
| 2026-05-06 04:05 | 30.03876 | -83.70343 | 36113 ft | 405 kts | 320° |
| 2026-05-06 04:05 | 30.08457 | -83.74171 | 36111 ft | 406 kts | 320° |
| 2026-05-06 04:06 | 30.13042 | -83.78005 | 36093 ft | 406 kts | 320° |
| 2026-05-06 04:06 | 30.17586 | -83.81871 | 36076 ft | 405 kts | 317° |
| 2026-05-06 04:07 | 30.21608 | -83.86297 | 36096 ft | 401 kts | 311° |
| 2026-05-06 04:07 | 30.25443 | -83.91011 | 36083 ft | 401 kts | 311° |
| 2026-05-06 04:08 | 30.29281 | -83.95686 | 36077 ft | 401 kts | 311° |
| 2026-05-06 04:08 | 30.33149 | -84.00322 | 36070 ft | 401 kts | 311° |
| 2026-05-06 04:09 | 30.37050 | -84.04965 | 36068 ft | 402 kts | 311° |
| 2026-05-06 04:09 | 30.40935 | -84.09587 | 36077 ft | 402 kts | 311° |
| 2026-05-06 04:10 | 30.44839 | -84.14238 | 36079 ft | 401 kts | 311° |
| 2026-05-06 04:10 | 30.48713 | -84.18860 | 36076 ft | 401 kts | 311° |
| 2026-05-06 04:11 | 30.52605 | -84.23509 | 36076 ft | 401 kts | 311° |
| 2026-05-06 04:11 | 30.56484 | -84.28148 | 36073 ft | 401 kts | 311° |
| 2026-05-06 04:12 | 30.60372 | -84.32805 | 36063 ft | 401 kts | 311° |
| 2026-05-06 04:12 | 30.64261 | -84.37467 | 36069 ft | 400 kts | 311° |
| 2026-05-06 04:13 | 30.68094 | -84.42070 | 36060 ft | 400 kts | 311° |
| 2026-05-06 04:13 | 30.71976 | -84.46736 | 36060 ft | 400 kts | 310° |
| 2026-05-06 04:14 | 30.75814 | -84.51355 | 36068 ft | 400 kts | 310° |
| 2026-05-06 04:14 | 30.79676 | -84.56008 | 36070 ft | 400 kts | 310° |
| 2026-05-06 04:15 | 30.83571 | -84.60707 | 36077 ft | 400 kts | 310° |
| 2026-05-06 04:15 | 30.85468 | -84.62998 | 36186 ft | 400 kts | 311° |
| 2026-05-06 04:15 | 30.87425 | -84.65363 | 36147 ft | 397 kts | 311° |
| 2026-05-06 04:16 | 30.91155 | -84.69873 | 36111 ft | 391 kts | 311° |
| 2026-05-06 04:16 | 30.94912 | -84.74422 | 36096 ft | 392 kts | 311° |
| 2026-05-06 04:17 | 30.98702 | -84.79017 | 36095 ft | 392 kts | 311° |
| 2026-05-06 04:17 | 31.02461 | -84.83580 | 36063 ft | 392 kts | 311° |
| 2026-05-06 04:18 | 31.06236 | -84.88169 | 36057 ft | 393 kts | 311° |
| 2026-05-06 04:18 | 31.10018 | -84.92770 | 36052 ft | 392 kts | 310° |
| 2026-05-06 04:19 | 31.13767 | -84.97337 | 36073 ft | 392 kts | 310° |
| 2026-05-06 04:19 | 31.17487 | -85.01875 | 36081 ft | 391 kts | 310° |
| 2026-05-06 04:20 | 31.21235 | -85.06453 | 36093 ft | 391 kts | 310° |
| 2026-05-06 04:20 | 31.24999 | -85.11055 | 36078 ft | 392 kts | 310° |
| 2026-05-06 04:21 | 31.28770 | -85.15672 | 36057 ft | 392 kts | 310° |
| 2026-05-06 04:21 | 31.32531 | -85.20281 | 36057 ft | 392 kts | 310° |
| 2026-05-06 04:22 | 31.36265 | -85.24864 | 36075 ft | 391 kts | 310° |
| 2026-05-06 04:23 | 31.41870 | -85.31753 | 36100 ft | 391 kts | 310° |
| 2026-05-06 04:23 | 31.45623 | -85.36374 | 36089 ft | 391 kts | 310° |
| 2026-05-06 04:24 | 31.49375 | -85.40998 | 36081 ft | 390 kts | 310° |
| 2026-05-06 04:24 | 31.53092 | -85.45585 | 36072 ft | 390 kts | 310° |
| 2026-05-06 04:25 | 31.56832 | -85.50207 | 36046 ft | 390 kts | 310° |
| 2026-05-06 04:25 | 31.60563 | -85.54823 | 36037 ft | 390 kts | 310° |
| 2026-05-06 04:26 | 31.64156 | -85.59274 | 36028 ft | 389 kts | 310° |
| 2026-05-06 04:26 | 31.67876 | -85.63888 | 36029 ft | 388 kts | 310° |
| 2026-05-06 04:27 | 31.71558 | -85.68461 | 36034 ft | 388 kts | 310° |
| 2026-05-06 04:27 | 31.75286 | -85.73095 | 36029 ft | 387 kts | 310° |
| 2026-05-06 04:28 | 31.78938 | -85.77641 | 36031 ft | 387 kts | 310° |
| 2026-05-06 04:28 | 31.82625 | -85.82238 | 36047 ft | 386 kts | 310° |
| 2026-05-06 04:29 | 31.86299 | -85.86822 | 36049 ft | 386 kts | 310° |
| 2026-05-06 04:29 | 31.89968 | -85.91407 | 36048 ft | 386 kts | 310° |
| 2026-05-06 04:30 | 31.93664 | -85.96032 | 36044 ft | 386 kts | 310° |
| 2026-05-06 04:30 | 31.97319 | -86.00603 | 36037 ft | 385 kts | 310° |
| 2026-05-06 04:31 | 32.00969 | -86.05179 | 36023 ft | 385 kts | 310° |
| 2026-05-06 04:31 | 32.04625 | -86.09773 | 36024 ft | 384 kts | 310° |
| 2026-05-06 04:32 | 32.08285 | -86.14377 | 36034 ft | 383 kts | 310° |
| 2026-05-06 04:32 | 32.11876 | -86.18899 | 35755 ft | 382 kts | 307° |
| 2026-05-06 04:33 | 32.15531 | -86.23508 | 35922 ft | 384 kts | 308° |
| 2026-05-06 04:33 | 32.19200 | -86.28147 | 36030 ft | 388 kts | 308° |
| 2026-05-06 04:34 | 32.22878 | -86.32793 | 36038 ft | 392 kts | 308° |
| 2026-05-06 04:34 | 32.26663 | -86.37524 | 36040 ft | 395 kts | 308° |
| 2026-05-06 04:35 | 32.30435 | -86.42226 | 36032 ft | 397 kts | 308° |
| 2026-05-06 04:35 | 32.34262 | -86.47005 | 36034 ft | 399 kts | 308° |
| 2026-05-06 04:36 | 32.38067 | -86.51767 | 36001 ft | 398 kts | 308° |
| 2026-05-06 04:36 | 32.41839 | -86.56495 | 36001 ft | 396 kts | 308° |
| 2026-05-06 04:37 | 32.45386 | -86.60949 | 35978 ft | 396 kts | 308° |
| 2026-05-06 04:37 | 32.49038 | -86.65541 | 35967 ft | 396 kts | 308° |
| 2026-05-06 04:38 | 32.52755 | -86.70221 | 35951 ft | 396 kts | 308° |
| 2026-05-06 04:38 | 32.56517 | -86.74963 | 35953 ft | 395 kts | 308° |
| 2026-05-06 04:39 | 32.60266 | -86.79696 | 35953 ft | 395 kts | 308° |
| 2026-05-06 04:39 | 32.64020 | -86.84440 | 35954 ft | 395 kts | 307° |
| 2026-05-06 04:40 | 32.67777 | -86.89195 | 35958 ft | 394 kts | 307° |
| 2026-05-06 04:40 | 32.71552 | -86.93979 | 35966 ft | 395 kts | 307° |
| 2026-05-06 04:41 | 32.75299 | -86.98735 | 35964 ft | 395 kts | 307° |
| 2026-05-06 04:41 | 32.79024 | -87.03467 | 35963 ft | 394 kts | 307° |
| 2026-05-06 04:42 | 32.82693 | -87.08134 | 35979 ft | 394 kts | 307° |
| 2026-05-06 04:42 | 32.85803 | -87.12097 | 35974 ft | 394 kts | 307° |
| 2026-05-06 04:43 | 32.89559 | -87.16888 | 35976 ft | 394 kts | 307° |
| 2026-05-06 04:43 | 32.93290 | -87.21652 | 35984 ft | 395 kts | 307° |
| 2026-05-06 04:44 | 32.97033 | -87.26439 | 35980 ft | 395 kts | 307° |
| 2026-05-06 04:44 | 33.00770 | -87.31224 | 35967 ft | 395 kts | 307° |
| 2026-05-06 04:45 | 33.04490 | -87.35994 | 35957 ft | 395 kts | 307° |
| 2026-05-06 04:45 | 33.08205 | -87.40763 | 35939 ft | 395 kts | 307° |
| 2026-05-06 04:46 | 33.11895 | -87.45506 | 35907 ft | 395 kts | 306° |
| 2026-05-06 04:46 | 33.15626 | -87.50308 | 35925 ft | 394 kts | 306° |
| 2026-05-06 04:47 | 33.19299 | -87.55043 | 35930 ft | 393 kts | 306° |
| 2026-05-06 04:47 | 33.22920 | -87.59717 | 35935 ft | 392 kts | 306° |
| 2026-05-06 04:48 | 33.26609 | -87.64486 | 35935 ft | 392 kts | 306° |
| 2026-05-06 04:48 | 33.30317 | -87.69286 | 35929 ft | 392 kts | 306° |
| 2026-05-06 04:49 | 33.34017 | -87.74081 | 35922 ft | 393 kts | 306° |
| 2026-05-06 04:49 | 33.37732 | -87.78902 | 35895 ft | 393 kts | 306° |
| 2026-05-06 04:50 | 33.41426 | -87.83702 | 35901 ft | 393 kts | 306° |
| 2026-05-06 04:50 | 33.45124 | -87.88514 | 35925 ft | 393 kts | 306° |
| 2026-05-06 04:51 | 33.48840 | -87.93356 | 35920 ft | 393 kts | 306° |
| 2026-05-06 04:51 | 33.52513 | -87.98148 | 35919 ft | 393 kts | 305° |
| 2026-05-06 04:52 | 33.56222 | -88.02994 | 35899 ft | 393 kts | 305° |
| 2026-05-06 04:52 | 33.59887 | -88.07789 | 35892 ft | 393 kts | 305° |
| 2026-05-06 04:53 | 33.63623 | -88.12684 | 35885 ft | 393 kts | 305° |
| 2026-05-06 04:53 | 33.67274 | -88.17473 | 35887 ft | 393 kts | 305° |
| 2026-05-06 04:53 | 33.69100 | -88.19903 | 36319 ft | 384 kts | 310° |
| 2026-05-06 04:54 | 33.70867 | -88.22256 | 36050 ft | 369 kts | 310° |
| 2026-05-06 04:54 | 33.74234 | -88.26667 | 35961 ft | 357 kts | 310° |
| 2026-05-06 04:55 | 33.77600 | -88.31076 | 35913 ft | 362 kts | 310° |
| 2026-05-06 04:55 | 33.81024 | -88.35579 | 35924 ft | 365 kts | 310° |
| 2026-05-06 04:56 | 33.84398 | -88.40028 | 35911 ft | 365 kts | 310° |
| 2026-05-06 04:56 | 33.87822 | -88.44553 | 35928 ft | 363 kts | 310° |
| 2026-05-06 04:57 | 33.91230 | -88.49063 | 35910 ft | 363 kts | 310° |
| 2026-05-06 04:57 | 33.94607 | -88.53540 | 35886 ft | 363 kts | 310° |
| 2026-05-06 04:58 | 33.97995 | -88.58037 | 35883 ft | 362 kts | 310° |
| 2026-05-06 04:58 | 34.01379 | -88.62533 | 35921 ft | 361 kts | 310° |
| 2026-05-06 04:59 | 34.04746 | -88.67012 | 35929 ft | 361 kts | 310° |
| 2026-05-06 04:59 | 34.08107 | -88.71491 | 35913 ft | 361 kts | 310° |
| 2026-05-06 05:00 | 34.11482 | -88.75994 | 35903 ft | 361 kts | 310° |
| 2026-05-06 05:00 | 34.14859 | -88.80503 | 35923 ft | 361 kts | 310° |
| 2026-05-06 05:01 | 34.18200 | -88.84972 | 35916 ft | 360 kts | 310° |
| 2026-05-06 05:01 | 34.21473 | -88.89355 | 35921 ft | 360 kts | 310° |
| 2026-05-06 05:02 | 34.24752 | -88.93751 | 35914 ft | 360 kts | 310° |
| 2026-05-06 05:02 | 34.28086 | -88.98227 | 35924 ft | 360 kts | 310° |
| 2026-05-06 05:03 | 34.31370 | -89.02641 | 35889 ft | 360 kts | 310° |
| 2026-05-06 05:03 | 34.34664 | -89.07075 | 35870 ft | 360 kts | 310° |
| 2026-05-06 05:04 | 34.38012 | -89.11585 | 35868 ft | 359 kts | 310° |
| 2026-05-06 05:04 | 34.41279 | -89.15975 | 35944 ft | 357 kts | 310° |
| 2026-05-06 05:05 | 34.44345 | -89.20118 | 35908 ft | 358 kts | 310° |
| 2026-05-06 05:05 | 34.47652 | -89.24603 | 35860 ft | 358 kts | 310° |
| 2026-05-06 05:06 | 34.50891 | -89.28994 | 35888 ft | 358 kts | 310° |
| 2026-05-06 05:06 | 34.54213 | -89.33500 | 35901 ft | 358 kts | 309° |
| 2026-05-06 05:07 | 34.57359 | -89.37773 | 35862 ft | 359 kts | 309° |
| 2026-05-06 05:07 | 34.60679 | -89.42287 | 35848 ft | 360 kts | 309° |
| 2026-05-06 05:08 | 34.64017 | -89.46831 | 35912 ft | 359 kts | 309° |
| 2026-05-06 05:08 | 34.67346 | -89.51369 | 35882 ft | 360 kts | 309° |
| 2026-05-06 05:09 | 34.70609 | -89.55822 | 35840 ft | 361 kts | 309° |
| 2026-05-06 05:09 | 34.73963 | -89.60406 | 35869 ft | 361 kts | 309° |
| 2026-05-06 05:10 | 34.77291 | -89.64961 | 35882 ft | 361 kts | 309° |
| 2026-05-06 05:10 | 34.80647 | -89.69560 | 35815 ft | 362 kts | 309° |
| 2026-05-06 05:11 | 34.83955 | -89.74098 | 35808 ft | 363 kts | 309° |
| 2026-05-06 05:11 | 34.87303 | -89.78699 | 35858 ft | 362 kts | 309° |
| 2026-05-06 05:12 | 34.90633 | -89.83281 | 35853 ft | 363 kts | 309° |
| 2026-05-06 05:12 | 34.93970 | -89.87878 | 35795 ft | 364 kts | 308° |
| 2026-05-06 05:13 | 34.97310 | -89.92486 | 35809 ft | 364 kts | 308° |
| 2026-05-06 05:13 | 35.00584 | -89.97004 | 35860 ft | 363 kts | 309° |
| 2026-05-06 05:14 | 35.04107 | -90.01207 | 35872 ft | 367 kts | 314° |
| 2026-05-06 05:14 | 35.08113 | -90.05163 | 35800 ft | 370 kts | 316° |
| 2026-05-06 05:15 | 35.12109 | -90.09027 | 35815 ft | 370 kts | 316° |
| 2026-05-06 05:15 | 35.16114 | -90.12975 | 35838 ft | 369 kts | 315° |
| 2026-05-06 05:16 | 35.20071 | -90.16931 | 35804 ft | 369 kts | 315° |
| 2026-05-06 05:16 | 35.24021 | -90.20905 | 35792 ft | 369 kts | 315° |
| 2026-05-06 05:17 | 35.27999 | -90.24918 | 35840 ft | 369 kts | 315° |
| 2026-05-06 05:17 | 35.31940 | -90.28901 | 35836 ft | 369 kts | 314° |
| 2026-05-06 05:18 | 35.35905 | -90.32913 | 35821 ft | 370 kts | 314° |
| 2026-05-06 05:18 | 35.39859 | -90.36919 | 35801 ft | 371 kts | 314° |
| 2026-05-06 05:19 | 35.43812 | -90.40929 | 35838 ft | 370 kts | 314° |
| 2026-05-06 05:19 | 35.47714 | -90.44893 | 35873 ft | 370 kts | 314° |
| 2026-05-06 05:20 | 35.51700 | -90.48947 | 35878 ft | 370 kts | 314° |
| 2026-05-06 05:20 | 35.55664 | -90.52983 | 35852 ft | 370 kts | 313° |
| 2026-05-06 05:21 | 35.59594 | -90.56992 | 35844 ft | 371 kts | 313° |
| 2026-05-06 05:21 | 35.63572 | -90.61055 | 35904 ft | 369 kts | 313° |
| 2026-05-06 05:22 | 35.67421 | -90.64991 | 35943 ft | 369 kts | 313° |
| 2026-05-06 05:22 | 35.71348 | -90.69011 | 35925 ft | 370 kts | 313° |
| 2026-05-06 05:23 | 35.75296 | -90.73060 | 35886 ft | 371 kts | 313° |
| 2026-05-06 05:23 | 35.81243 | -90.79166 | 35897 ft | 371 kts | 313° |
| 2026-05-06 05:24 | 35.85111 | -90.83146 | 35882 ft | 370 kts | 313° |
| 2026-05-06 05:24 | 35.89048 | -90.87199 | 35941 ft | 369 kts | 313° |
| 2026-05-06 05:25 | 35.92995 | -90.91270 | 35914 ft | 369 kts | 312° |
| 2026-05-06 05:25 | 35.96905 | -90.95309 | 35910 ft | 369 kts | 312° |
| 2026-05-06 05:26 | 36.00839 | -90.99378 | 35926 ft | 368 kts | 312° |
| 2026-05-06 05:26 | 36.04753 | -91.03431 | 35944 ft | 368 kts | 312° |
| 2026-05-06 05:27 | 36.08681 | -91.07505 | 35933 ft | 368 kts | 312° |
| 2026-05-06 05:27 | 36.12613 | -91.11588 | 35923 ft | 369 kts | 312° |
| 2026-05-06 05:28 | 36.16538 | -91.15669 | 35910 ft | 369 kts | 311° |
| 2026-05-06 05:28 | 36.20460 | -91.19753 | 35913 ft | 370 kts | 311° |
| 2026-05-06 05:29 | 36.24404 | -91.23865 | 35897 ft | 370 kts | 311° |
| 2026-05-06 05:29 | 36.26382 | -91.25910 | 35749 ft | 373 kts | 307° |
| 2026-05-06 05:29 | 36.28387 | -91.27983 | 35849 ft | 374 kts | 307° |
| 2026-05-06 05:30 | 36.32368 | -91.32160 | 35941 ft | 379 kts | 307° |
| 2026-05-06 05:30 | 36.36438 | -91.36450 | 35953 ft | 386 kts | 307° |
| 2026-05-06 05:31 | 36.40556 | -91.40780 | 35959 ft | 392 kts | 307° |
| 2026-05-06 05:31 | 36.44069 | -91.44469 | 35984 ft | 395 kts | 307° |
| 2026-05-06 05:32 | 36.48297 | -91.48911 | 35992 ft | 398 kts | 307° |
| 2026-05-06 05:32 | 36.52506 | -91.53338 | 35997 ft | 399 kts | 307° |
| 2026-05-06 05:33 | 36.56756 | -91.57811 | 35970 ft | 399 kts | 307° |
| 2026-05-06 05:33 | 36.61008 | -91.62298 | 35948 ft | 399 kts | 307° |
| 2026-05-06 05:34 | 36.65210 | -91.66741 | 35943 ft | 399 kts | 307° |
| 2026-05-06 05:34 | 36.69414 | -91.71194 | 35953 ft | 399 kts | 307° |
| 2026-05-06 05:35 | 36.73666 | -91.75706 | 35970 ft | 398 kts | 306° |
| 2026-05-06 05:35 | 36.77830 | -91.80129 | 35973 ft | 398 kts | 306° |
| 2026-05-06 05:36 | 36.82091 | -91.84662 | 35976 ft | 399 kts | 306° |
| 2026-05-06 05:36 | 36.86300 | -91.89148 | 35980 ft | 399 kts | 306° |
| 2026-05-06 05:37 | 36.90535 | -91.93667 | 35978 ft | 399 kts | 306° |
| 2026-05-06 05:37 | 36.94743 | -91.98164 | 35986 ft | 399 kts | 306° |
| 2026-05-06 05:38 | 36.98855 | -92.02565 | 35968 ft | 399 kts | 306° |
| 2026-05-06 05:38 | 37.03091 | -92.07106 | 35981 ft | 399 kts | 306° |
| 2026-05-06 05:39 | 37.07283 | -92.11605 | 35978 ft | 399 kts | 306° |
| 2026-05-06 05:39 | 37.11496 | -92.16135 | 35967 ft | 399 kts | 306° |
| 2026-05-06 05:40 | 37.15690 | -92.20648 | 35967 ft | 397 kts | 306° |
| 2026-05-06 05:40 | 37.19876 | -92.25161 | 35969 ft | 396 kts | 306° |
| 2026-05-06 05:41 | 37.24050 | -92.29669 | 35970 ft | 395 kts | 306° |
| 2026-05-06 05:41 | 37.28167 | -92.34123 | 35963 ft | 394 kts | 305° |
| 2026-05-06 05:42 | 37.32305 | -92.38607 | 35973 ft | 393 kts | 305° |
| 2026-05-06 05:42 | 37.36442 | -92.43095 | 36000 ft | 392 kts | 305° |
| 2026-05-06 05:43 | 37.40563 | -92.47573 | 36004 ft | 391 kts | 305° |
| 2026-05-06 05:43 | 37.44656 | -92.52029 | 36013 ft | 391 kts | 305° |
| 2026-05-06 05:44 | 37.48777 | -92.56521 | 36031 ft | 391 kts | 305° |
| 2026-05-06 05:44 | 37.52885 | -92.61004 | 36043 ft | 391 kts | 305° |
| 2026-05-06 05:45 | 37.56984 | -92.65486 | 36046 ft | 391 kts | 305° |
| 2026-05-06 05:45 | 37.61093 | -92.69984 | 36020 ft | 391 kts | 305° |
| 2026-05-06 05:46 | 37.65197 | -92.74484 | 36003 ft | 391 kts | 304° |
| 2026-05-06 05:46 | 37.69277 | -92.78965 | 36015 ft | 391 kts | 304° |
| 2026-05-06 05:47 | 37.73382 | -92.83480 | 36028 ft | 390 kts | 304° |
| 2026-05-06 05:47 | 37.77461 | -92.87973 | 36042 ft | 389 kts | 304° |
| 2026-05-06 05:48 | 37.81527 | -92.92457 | 36042 ft | 389 kts | 304° |
| 2026-05-06 05:48 | 37.85618 | -92.96977 | 36035 ft | 389 kts | 304° |
| 2026-05-06 05:49 | 37.89650 | -93.01440 | 36035 ft | 389 kts | 304° |
| 2026-05-06 05:49 | 37.93705 | -93.05935 | 36038 ft | 389 kts | 304° |
| 2026-05-06 05:50 | 37.97776 | -93.10454 | 36014 ft | 389 kts | 304° |
| 2026-05-06 05:50 | 38.01834 | -93.14963 | 36010 ft | 389 kts | 304° |
| 2026-05-06 05:51 | 38.05899 | -93.19490 | 36014 ft | 389 kts | 304° |
| 2026-05-06 05:51 | 38.09944 | -93.24001 | 36024 ft | 389 kts | 303° |
| 2026-05-06 05:52 | 38.13987 | -93.28516 | 36038 ft | 389 kts | 303° |
| 2026-05-06 05:52 | 38.18060 | -93.33071 | 36054 ft | 389 kts | 303° |
| 2026-05-06 05:53 | 38.21922 | -93.37398 | 36055 ft | 388 kts | 303° |
| 2026-05-06 05:53 | 38.25981 | -93.41951 | 36057 ft | 388 kts | 303° |
| 2026-05-06 05:54 | 38.29965 | -93.46427 | 36054 ft | 388 kts | 303° |
| 2026-05-06 05:54 | 38.34024 | -93.50996 | 36063 ft | 388 kts | 303° |
| 2026-05-06 05:55 | 38.38067 | -93.55553 | 36066 ft | 388 kts | 303° |
| 2026-05-06 05:55 | 38.42137 | -93.60147 | 36061 ft | 389 kts | 303° |
| 2026-05-06 05:56 | 38.46118 | -93.64648 | 36061 ft | 389 kts | 303° |
| 2026-05-06 05:56 | 38.50155 | -93.69218 | 36049 ft | 389 kts | 303° |
| 2026-05-06 05:57 | 38.54227 | -93.73838 | 36007 ft | 390 kts | 303° |
| 2026-05-06 05:57 | 38.58279 | -93.78441 | 36015 ft | 390 kts | 303° |
| 2026-05-06 05:58 | 38.62327 | -93.83047 | 36030 ft | 390 kts | 303° |
| 2026-05-06 05:58 | 38.66350 | -93.87632 | 36050 ft | 390 kts | 303° |
| 2026-05-06 05:59 | 38.70382 | -93.92234 | 36079 ft | 390 kts | 303° |
| 2026-05-06 05:59 | 38.74295 | -93.96705 | 36085 ft | 390 kts | 303° |
| 2026-05-06 06:00 | 38.78172 | -94.01144 | 36070 ft | 390 kts | 303° |
| 2026-05-06 06:00 | 38.82240 | -94.05808 | 36050 ft | 391 kts | 303° |
| 2026-05-06 06:01 | 38.86274 | -94.10441 | 36047 ft | 392 kts | 303° |
| 2026-05-06 06:01 | 38.90210 | -94.14969 | 36059 ft | 393 kts | 303° |
| 2026-05-06 06:02 | 38.94300 | -94.19682 | 36060 ft | 393 kts | 303° |
| 2026-05-06 06:02 | 38.98337 | -94.24341 | 36064 ft | 394 kts | 303° |
| 2026-05-06 06:03 | 39.02452 | -94.29096 | 36050 ft | 395 kts | 303° |
| 2026-05-06 06:03 | 39.06509 | -94.33792 | 36053 ft | 395 kts | 303° |
| 2026-05-06 06:04 | 39.10580 | -94.38512 | 36043 ft | 395 kts | 303° |
| 2026-05-06 06:04 | 39.14577 | -94.43154 | 36053 ft | 395 kts | 303° |
| 2026-05-06 06:05 | 39.18670 | -94.47915 | 36082 ft | 395 kts | 303° |
| 2026-05-06 06:05 | 39.22715 | -94.52629 | 36088 ft | 395 kts | 303° |
| 2026-05-06 06:06 | 39.26758 | -94.57346 | 36089 ft | 396 kts | 303° |
| 2026-05-06 06:06 | 39.30852 | -94.62131 | 36085 ft | 396 kts | 303° |
| 2026-05-06 06:07 | 39.34837 | -94.66797 | 36072 ft | 397 kts | 303° |
| 2026-05-06 06:07 | 39.38876 | -94.71534 | 36057 ft | 397 kts | 303° |
| 2026-05-06 06:08 | 39.43008 | -94.76389 | 36041 ft | 398 kts | 303° |
| 2026-05-06 06:08 | 39.47088 | -94.81191 | 36049 ft | 399 kts | 303° |
| 2026-05-06 06:09 | 39.51192 | -94.86028 | 36065 ft | 399 kts | 303° |
| 2026-05-06 06:09 | 39.55316 | -94.90896 | 36067 ft | 400 kts | 303° |
| 2026-05-06 06:10 | 39.59431 | -94.95763 | 36058 ft | 401 kts | 303° |
| 2026-05-06 06:10 | 39.63515 | -95.00600 | 36039 ft | 401 kts | 303° |
| 2026-05-06 06:11 | 39.67641 | -95.05494 | 36038 ft | 401 kts | 303° |
| 2026-05-06 06:11 | 39.71755 | -95.10383 | 36046 ft | 401 kts | 303° |
| 2026-05-06 06:12 | 39.75851 | -95.15260 | 36066 ft | 400 kts | 303° |
| 2026-05-06 06:12 | 39.79970 | -95.20172 | 36072 ft | 401 kts | 303° |
| 2026-05-06 06:13 | 39.84046 | -95.25042 | 36074 ft | 401 kts | 303° |
| 2026-05-06 06:13 | 39.88162 | -95.29966 | 36074 ft | 400 kts | 303° |
| 2026-05-06 06:14 | 39.92284 | -95.34908 | 36067 ft | 401 kts | 303° |
| 2026-05-06 06:14 | 39.96387 | -95.39832 | 36068 ft | 400 kts | 303° |
| 2026-05-06 06:15 | 40.00473 | -95.44747 | 36067 ft | 400 kts | 303° |
| 2026-05-06 06:15 | 40.04544 | -95.49653 | 36067 ft | 400 kts | 303° |
| 2026-05-06 06:16 | 40.08646 | -95.54604 | 36074 ft | 400 kts | 303° |
| 2026-05-06 06:16 | 40.12726 | -95.59538 | 36065 ft | 400 kts | 303° |
| 2026-05-06 06:17 | 40.16804 | -95.64478 | 36067 ft | 401 kts | 303° |
| 2026-05-06 06:17 | 40.20228 | -95.68632 | 36067 ft | 402 kts | 303° |
| 2026-05-06 06:18 | 40.24330 | -95.73616 | 36076 ft | 403 kts | 304° |
| 2026-05-06 06:18 | 40.28465 | -95.78648 | 36072 ft | 404 kts | 304° |
| 2026-05-06 06:19 | 40.32565 | -95.83648 | 36069 ft | 406 kts | 304° |
| 2026-05-06 06:19 | 40.36594 | -95.88568 | 36078 ft | 407 kts | 304° |
| 2026-05-06 06:20 | 40.40664 | -95.93547 | 36086 ft | 408 kts | 304° |
| 2026-05-06 06:20 | 40.44795 | -95.98609 | 36080 ft | 408 kts | 304° |
| 2026-05-06 06:21 | 40.48985 | -96.03752 | 36074 ft | 409 kts | 304° |
| 2026-05-06 06:21 | 40.53132 | -96.08852 | 36082 ft | 410 kts | 305° |
| 2026-05-06 06:22 | 40.57317 | -96.14009 | 36077 ft | 411 kts | 305° |
| 2026-05-06 06:22 | 40.61458 | -96.19119 | 36086 ft | 412 kts | 305° |
| 2026-05-06 06:23 | 40.65640 | -96.24291 | 36089 ft | 413 kts | 305° |
| 2026-05-06 06:23 | 40.69825 | -96.29474 | 36096 ft | 414 kts | 306° |
| 2026-05-06 06:24 | 40.73403 | -96.33914 | 36072 ft | 415 kts | 306° |
| 2026-05-06 06:24 | 40.77620 | -96.39156 | 36071 ft | 416 kts | 306° |
| 2026-05-06 06:25 | 40.81798 | -96.44357 | 36089 ft | 416 kts | 306° |
| 2026-05-06 06:26 | 40.88055 | -96.52164 | 36089 ft | 417 kts | 306° |
| 2026-05-06 06:26 | 40.92283 | -96.57453 | 36090 ft | 417 kts | 306° |
| 2026-05-06 06:27 | 40.96488 | -96.62723 | 36093 ft | 418 kts | 306° |
| 2026-05-06 06:27 | 41.00611 | -96.67900 | 36108 ft | 418 kts | 306° |
| 2026-05-06 06:28 | 41.04826 | -96.73201 | 36105 ft | 419 kts | 306° |
| 2026-05-06 06:28 | 41.09074 | -96.78554 | 36105 ft | 420 kts | 307° |
| 2026-05-06 06:29 | 41.13315 | -96.83908 | 36095 ft | 420 kts | 307° |
| 2026-05-06 06:29 | 41.17528 | -96.89237 | 36085 ft | 421 kts | 307° |
| 2026-05-06 06:30 | 41.21758 | -96.94596 | 36104 ft | 421 kts | 307° |
| 2026-05-06 06:30 | 41.26035 | -97.00026 | 36099 ft | 422 kts | 307° |
| 2026-05-06 06:31 | 41.30260 | -97.05401 | 36118 ft | 423 kts | 307° |
| 2026-05-06 06:31 | 41.34516 | -97.10826 | 36117 ft | 423 kts | 307° |
| 2026-05-06 06:32 | 41.38743 | -97.16222 | 36108 ft | 424 kts | 307° |
| 2026-05-06 06:32 | 41.43015 | -97.21687 | 36115 ft | 424 kts | 307° |
| 2026-05-06 06:33 | 41.47279 | -97.27152 | 36114 ft | 425 kts | 307° |
| 2026-05-06 06:33 | 41.51516 | -97.32594 | 36114 ft | 425 kts | 307° |
| 2026-05-06 06:34 | 41.55791 | -97.38095 | 36117 ft | 426 kts | 307° |
| 2026-05-06 06:34 | 41.59951 | -97.43457 | 36115 ft | 426 kts | 307° |
| 2026-05-06 06:35 | 41.64042 | -97.48742 | 36114 ft | 427 kts | 307° |
| 2026-05-06 06:35 | 41.68313 | -97.54268 | 36125 ft | 427 kts | 307° |
| 2026-05-06 06:36 | 41.72580 | -97.59799 | 36112 ft | 427 kts | 307° |
| 2026-05-06 06:36 | 41.76859 | -97.65358 | 36127 ft | 427 kts | 307° |
| 2026-05-06 06:37 | 41.80827 | -97.70522 | 36111 ft | 428 kts | 307° |
| 2026-05-06 06:37 | 41.85099 | -97.76093 | 36125 ft | 427 kts | 307° |
| 2026-05-06 06:38 | 41.89375 | -97.81681 | 36118 ft | 428 kts | 307° |
| 2026-05-06 06:38 | 41.93606 | -97.87220 | 36122 ft | 428 kts | 307° |
| 2026-05-06 06:39 | 41.97891 | -97.92841 | 36122 ft | 428 kts | 307° |
| 2026-05-06 06:39 | 42.02071 | -97.98334 | 36127 ft | 428 kts | 307° |
| 2026-05-06 06:40 | 42.06310 | -98.03915 | 36119 ft | 427 kts | 307° |
| 2026-05-06 06:40 | 42.10545 | -98.09503 | 36137 ft | 426 kts | 307° |
| 2026-05-06 06:41 | 42.14793 | -98.15120 | 36141 ft | 426 kts | 307° |
| 2026-05-06 06:41 | 42.19019 | -98.20718 | 36135 ft | 426 kts | 308° |
| 2026-05-06 06:42 | 42.23228 | -98.26306 | 36133 ft | 426 kts | 308° |
| 2026-05-06 06:42 | 42.27452 | -98.31924 | 36140 ft | 426 kts | 308° |
| 2026-05-06 06:43 | 42.31612 | -98.37468 | 36134 ft | 426 kts | 308° |
| 2026-05-06 06:43 | 42.35802 | -98.43063 | 36125 ft | 427 kts | 308° |
| 2026-05-06 06:44 | 42.40038 | -98.48730 | 36125 ft | 427 kts | 307° |
| 2026-05-06 06:44 | 42.44264 | -98.54396 | 36125 ft | 427 kts | 307° |
| 2026-05-06 06:45 | 42.48433 | -98.59996 | 36118 ft | 428 kts | 307° |
| 2026-05-06 06:45 | 42.52631 | -98.65647 | 36126 ft | 428 kts | 308° |
| 2026-05-06 06:46 | 42.56904 | -98.71409 | 36117 ft | 429 kts | 308° |
| 2026-05-06 06:46 | 42.61117 | -98.77104 | 36126 ft | 430 kts | 308° |
| 2026-05-06 06:47 | 42.65358 | -98.82847 | 36119 ft | 431 kts | 308° |
| 2026-05-06 06:47 | 42.69617 | -98.88626 | 36133 ft | 431 kts | 308° |
| 2026-05-06 06:48 | 42.73838 | -98.94367 | 36120 ft | 433 kts | 308° |
| 2026-05-06 06:48 | 42.78105 | -99.00181 | 36120 ft | 433 kts | 308° |
| 2026-05-06 06:49 | 42.82105 | -99.05641 | 36135 ft | 434 kts | 308° |
| 2026-05-06 06:49 | 42.86381 | -99.11491 | 36141 ft | 434 kts | 308° |
| 2026-05-06 06:50 | 42.90658 | -99.17354 | 36136 ft | 435 kts | 308° |
| 2026-05-06 06:50 | 42.94900 | -99.23181 | 36134 ft | 436 kts | 308° |
| 2026-05-06 06:51 | 42.99182 | -99.29075 | 36128 ft | 437 kts | 308° |
| 2026-05-06 06:51 | 43.03426 | -99.34929 | 36143 ft | 437 kts | 308° |
| 2026-05-06 06:52 | 43.07683 | -99.40814 | 36144 ft | 437 kts | 309° |
| 2026-05-06 06:52 | 43.11888 | -99.46640 | 36132 ft | 438 kts | 309° |
| 2026-05-06 06:53 | 43.16181 | -99.52600 | 36139 ft | 438 kts | 309° |
| 2026-05-06 06:53 | 43.20475 | -99.58574 | 36120 ft | 439 kts | 309° |
| 2026-05-06 06:54 | 43.24751 | -99.64534 | 36121 ft | 440 kts | 309° |
| 2026-05-06 06:54 | 43.29038 | -99.70524 | 36116 ft | 440 kts | 309° |
| 2026-05-06 06:55 | 43.33301 | -99.76493 | 36112 ft | 441 kts | 309° |
| 2026-05-06 06:55 | 43.37602 | -99.82527 | 36111 ft | 442 kts | 309° |
| 2026-05-06 06:56 | 43.41906 | -99.88579 | 36109 ft | 442 kts | 309° |
| 2026-05-06 06:56 | 43.46203 | -99.94635 | 36109 ft | 443 kts | 309° |
| 2026-05-06 06:57 | 43.50520 | -100.00678 | 36113 ft | 444 kts | 311° |
| 2026-05-06 06:57 | 43.55163 | -100.06343 | 36127 ft | 448 kts | 316° |
| 2026-05-06 06:58 | 43.60105 | -100.11639 | 36135 ft | 450 kts | 317° |
| 2026-05-06 06:58 | 43.64988 | -100.16806 | 36133 ft | 450 kts | 317° |
| 2026-05-06 06:59 | 43.69683 | -100.21935 | 36122 ft | 450 kts | 316° |
| 2026-05-06 06:59 | 43.74541 | -100.27356 | 36133 ft | 450 kts | 316° |
| 2026-05-06 07:00 | 43.79420 | -100.32844 | 36140 ft | 450 kts | 316° |
| 2026-05-06 07:00 | 43.84244 | -100.38281 | 36136 ft | 450 kts | 316° |
| 2026-05-06 07:01 | 43.89111 | -100.43774 | 36128 ft | 451 kts | 316° |
| 2026-05-06 07:01 | 43.93998 | -100.49299 | 36110 ft | 451 kts | 316° |
| 2026-05-06 07:02 | 43.98841 | -100.54785 | 36150 ft | 451 kts | 316° |
| 2026-05-06 07:02 | 44.03687 | -100.60288 | 36146 ft | 451 kts | 317° |
| 2026-05-06 07:03 | 44.08537 | -100.65805 | 36124 ft | 452 kts | 317° |
| 2026-05-06 07:03 | 44.13411 | -100.71363 | 36124 ft | 452 kts | 317° |
| 2026-05-06 07:04 | 44.18224 | -100.76863 | 36132 ft | 451 kts | 317° |
| 2026-05-06 07:04 | 44.22287 | -100.81515 | 36154 ft | 450 kts | 317° |
| 2026-05-06 07:05 | 44.27153 | -100.87099 | 36163 ft | 450 kts | 317° |
| 2026-05-06 07:05 | 44.31867 | -100.92520 | 36149 ft | 450 kts | 317° |
| 2026-05-06 07:06 | 44.36697 | -100.98087 | 36141 ft | 451 kts | 317° |
| 2026-05-06 07:06 | 44.41538 | -101.03679 | 36149 ft | 451 kts | 317° |
| 2026-05-06 07:07 | 44.46386 | -101.09290 | 36150 ft | 451 kts | 317° |
| 2026-05-06 07:07 | 44.51231 | -101.14911 | 36158 ft | 452 kts | 317° |
| 2026-05-06 07:08 | 44.55975 | -101.20428 | 36158 ft | 452 kts | 317° |
| 2026-05-06 07:08 | 44.60804 | -101.26054 | 36162 ft | 452 kts | 317° |
| 2026-05-06 07:09 | 44.65651 | -101.31715 | 36163 ft | 452 kts | 317° |
| 2026-05-06 07:09 | 44.70484 | -101.37372 | 36164 ft | 453 kts | 317° |
| 2026-05-06 07:10 | 44.75291 | -101.43012 | 36169 ft | 453 kts | 317° |
| 2026-05-06 07:10 | 44.80119 | -101.48689 | 36169 ft | 453 kts | 317° |
| 2026-05-06 07:11 | 44.84953 | -101.54386 | 36165 ft | 453 kts | 318° |
| 2026-05-06 07:11 | 44.89806 | -101.60117 | 36183 ft | 453 kts | 318° |
| 2026-05-06 07:12 | 44.94613 | -101.65809 | 36168 ft | 454 kts | 318° |
| 2026-05-06 07:12 | 44.99467 | -101.71569 | 36181 ft | 454 kts | 318° |
| 2026-05-06 07:13 | 45.04269 | -101.77278 | 36180 ft | 454 kts | 318° |
| 2026-05-06 07:13 | 45.09095 | -101.83030 | 36180 ft | 454 kts | 318° |
| 2026-05-06 07:14 | 45.13886 | -101.88755 | 36182 ft | 454 kts | 318° |
| 2026-05-06 07:14 | 45.18711 | -101.94532 | 36184 ft | 454 kts | 318° |
| 2026-05-06 07:15 | 45.23550 | -102.00340 | 36181 ft | 454 kts | 319° |
| 2026-05-06 07:15 | 45.28349 | -102.06112 | 36188 ft | 454 kts | 319° |
| 2026-05-06 07:16 | 45.31584 | -102.10012 | 36185 ft | 454 kts | 319° |
| 2026-05-06 07:16 | 45.36265 | -102.15664 | 36188 ft | 454 kts | 319° |
| 2026-05-06 07:17 | 45.41066 | -102.21475 | 36189 ft | 454 kts | 319° |
| 2026-05-06 07:17 | 45.45859 | -102.27289 | 36187 ft | 454 kts | 319° |
| 2026-05-06 07:18 | 45.50395 | -102.32805 | 36193 ft | 454 kts | 319° |
| 2026-05-06 07:18 | 45.55008 | -102.38426 | 36191 ft | 454 kts | 319° |
| 2026-05-06 07:19 | 45.59794 | -102.44270 | 36197 ft | 454 kts | 319° |
| 2026-05-06 07:19 | 45.64609 | -102.50164 | 36189 ft | 454 kts | 319° |
| 2026-05-06 07:20 | 45.69362 | -102.55997 | 36190 ft | 454 kts | 319° |
| 2026-05-06 07:20 | 45.74103 | -102.61828 | 36168 ft | 454 kts | 319° |
| 2026-05-06 07:21 | 45.78904 | -102.67747 | 36156 ft | 454 kts | 319° |
| 2026-05-06 07:21 | 45.83663 | -102.73627 | 36148 ft | 454 kts | 319° |
| 2026-05-06 07:22 | 45.88207 | -102.79255 | 36135 ft | 455 kts | 319° |
| 2026-05-06 07:22 | 45.92986 | -102.85187 | 36142 ft | 454 kts | 319° |
| 2026-05-06 07:23 | 45.97738 | -102.91100 | 36136 ft | 454 kts | 320° |
| 2026-05-06 07:23 | 46.02312 | -102.96805 | 36157 ft | 454 kts | 320° |
| 2026-05-06 07:24 | 46.07045 | -103.02722 | 36149 ft | 454 kts | 320° |
| 2026-05-06 07:24 | 46.11747 | -103.08613 | 36130 ft | 454 kts | 320° |
| 2026-05-06 07:25 | 46.16497 | -103.14579 | 36122 ft | 453 kts | 320° |
| 2026-05-06 07:25 | 46.21232 | -103.20540 | 36113 ft | 453 kts | 320° |
| 2026-05-06 07:26 | 46.25993 | -103.26549 | 36118 ft | 452 kts | 320° |
| 2026-05-06 07:26 | 46.30694 | -103.32496 | 36127 ft | 452 kts | 320° |
| 2026-05-06 07:27 | 46.35445 | -103.38519 | 36141 ft | 451 kts | 320° |
| 2026-05-06 07:27 | 46.40121 | -103.44463 | 36159 ft | 451 kts | 320° |
| 2026-05-06 07:28 | 46.44849 | -103.50473 | 36174 ft | 451 kts | 320° |
| 2026-05-06 07:28 | 46.51882 | -103.59467 | 36193 ft | 451 kts | 320° |
| 2026-05-06 07:29 | 46.56487 | -103.65380 | 36192 ft | 451 kts | 320° |
| 2026-05-06 07:29 | 46.61127 | -103.71344 | 36191 ft | 451 kts | 320° |
| 2026-05-06 07:30 | 46.65863 | -103.77442 | 36190 ft | 451 kts | 320° |
| 2026-05-06 07:30 | 46.70406 | -103.83306 | 36201 ft | 451 kts | 320° |
| 2026-05-06 07:31 | 46.75099 | -103.89378 | 36190 ft | 451 kts | 320° |
| 2026-05-06 07:31 | 46.79697 | -103.95341 | 36201 ft | 451 kts | 320° |
| 2026-05-06 07:32 | 46.84357 | -104.01400 | 36192 ft | 451 kts | 320° |
| 2026-05-06 07:32 | 46.89045 | -104.07510 | 36196 ft | 451 kts | 320° |
| 2026-05-06 07:33 | 46.93707 | -104.13601 | 36196 ft | 450 kts | 321° |
| 2026-05-06 07:33 | 46.98382 | -104.19725 | 36194 ft | 450 kts | 321° |
| 2026-05-06 07:34 | 47.02904 | -104.25661 | 36193 ft | 449 kts | 321° |
| 2026-05-06 07:34 | 47.07427 | -104.31615 | 36198 ft | 448 kts | 321° |
| 2026-05-06 07:35 | 47.12059 | -104.37725 | 36181 ft | 448 kts | 321° |
| 2026-05-06 07:35 | 47.16223 | -104.43230 | 36177 ft | 448 kts | 321° |
| 2026-05-06 07:36 | 47.20545 | -104.48958 | 36173 ft | 448 kts | 321° |
| 2026-05-06 07:36 | 47.25130 | -104.55049 | 36163 ft | 447 kts | 321° |
| 2026-05-06 07:37 | 47.29685 | -104.61114 | 36170 ft | 447 kts | 321° |
| 2026-05-06 07:37 | 47.34201 | -104.67142 | 36170 ft | 446 kts | 321° |
| 2026-05-06 07:38 | 47.38801 | -104.73297 | 36175 ft | 446 kts | 321° |
| 2026-05-06 07:38 | 47.43352 | -104.79402 | 36196 ft | 446 kts | 321° |
| 2026-05-06 07:39 | 47.47940 | -104.85572 | 36203 ft | 445 kts | 321° |
| 2026-05-06 07:39 | 47.52506 | -104.91727 | 36207 ft | 445 kts | 321° |
| 2026-05-06 07:40 | 47.57042 | -104.97856 | 36227 ft | 444 kts | 321° |
| 2026-05-06 07:40 | 47.61625 | -105.04065 | 36200 ft | 444 kts | 321° |
| 2026-05-06 07:41 | 47.66177 | -105.10247 | 36192 ft | 444 kts | 321° |
| 2026-05-06 07:41 | 47.70739 | -105.16458 | 36214 ft | 443 kts | 321° |
| 2026-05-06 07:42 | 47.75274 | -105.22647 | 36225 ft | 443 kts | 321° |
| 2026-05-06 07:42 | 47.79825 | -105.28872 | 36224 ft | 442 kts | 321° |
| 2026-05-06 07:43 | 47.84335 | -105.35058 | 36204 ft | 442 kts | 321° |
| 2026-05-06 07:43 | 47.88853 | -105.41271 | 36186 ft | 441 kts | 321° |
| 2026-05-06 07:44 | 47.93347 | -105.47465 | 36166 ft | 441 kts | 321° |
| 2026-05-06 07:44 | 47.97852 | -105.53690 | 36153 ft | 441 kts | 321° |
| 2026-05-06 07:45 | 48.02339 | -105.59906 | 36150 ft | 440 kts | 321° |
| 2026-05-06 07:45 | 48.06785 | -105.66080 | 36161 ft | 439 kts | 321° |
| 2026-05-06 07:46 | 48.11222 | -105.72258 | 36175 ft | 438 kts | 321° |
| 2026-05-06 07:46 | 48.15697 | -105.78503 | 36185 ft | 438 kts | 321° |
| 2026-05-06 07:47 | 48.20153 | -105.84737 | 36184 ft | 437 kts | 321° |
| 2026-05-06 07:47 | 48.24525 | -105.90869 | 36191 ft | 437 kts | 321° |
| 2026-05-06 07:48 | 48.28947 | -105.97087 | 36211 ft | 437 kts | 321° |
| 2026-05-06 07:48 | 48.33372 | -106.03323 | 36235 ft | 436 kts | 321° |
| 2026-05-06 07:49 | 48.37656 | -106.09377 | 36227 ft | 436 kts | 321° |
| 2026-05-06 07:49 | 48.42074 | -106.15636 | 36227 ft | 435 kts | 321° |
| 2026-05-06 07:50 | 48.46455 | -106.21868 | 36234 ft | 434 kts | 321° |
| 2026-05-06 07:50 | 48.50846 | -106.28120 | 36225 ft | 434 kts | 322° |
| 2026-05-06 07:51 | 48.55251 | -106.34394 | 36228 ft | 433 kts | 322° |
| 2026-05-06 07:51 | 48.59592 | -106.40601 | 36223 ft | 432 kts | 322° |
| 2026-05-06 07:52 | 48.63954 | -106.46858 | 36219 ft | 431 kts | 322° |
| 2026-05-06 07:52 | 48.68288 | -106.53090 | 36227 ft | 430 kts | 322° |
| 2026-05-06 07:53 | 48.71929 | -106.58339 | 36220 ft | 430 kts | 322° |
| 2026-05-06 07:53 | 48.76244 | -106.64572 | 36222 ft | 429 kts | 322° |
| 2026-05-06 07:54 | 48.80531 | -106.70780 | 36220 ft | 429 kts | 322° |
| 2026-05-06 07:54 | 48.84842 | -106.77040 | 36225 ft | 428 kts | 322° |
| 2026-05-06 07:55 | 48.89151 | -106.83311 | 36223 ft | 427 kts | 322° |
| 2026-05-06 07:55 | 48.93406 | -106.89520 | 36223 ft | 426 kts | 322° |
| 2026-05-06 07:56 | 48.97689 | -106.95785 | 36228 ft | 425 kts | 322° |
| 2026-05-06 07:56 | 49.01924 | -107.01995 | 36226 ft | 424 kts | 322° |
| 2026-05-06 07:57 | 49.06143 | -107.08197 | 36234 ft | 423 kts | 322° |
| 2026-05-06 07:57 | 49.10316 | -107.14345 | 36225 ft | 422 kts | 322° |
| 2026-05-06 07:58 | 49.14524 | -107.20563 | 36231 ft | 421 kts | 322° |
| 2026-05-06 07:58 | 49.18757 | -107.26831 | 36210 ft | 421 kts | 322° |
| 2026-05-06 07:59 | 49.22935 | -107.33034 | 36213 ft | 421 kts | 322° |
| 2026-05-06 07:59 | 49.27069 | -107.39188 | 36233 ft | 419 kts | 322° |
| 2026-05-06 08:00 | 49.31226 | -107.45391 | 36247 ft | 418 kts | 322° |
| 2026-05-06 08:00 | 49.35411 | -107.51649 | 36237 ft | 418 kts | 322° |
| 2026-05-06 08:01 | 49.39500 | -107.57780 | 36232 ft | 417 kts | 322° |
| 2026-05-06 08:01 | 49.43646 | -107.64013 | 36226 ft | 417 kts | 322° |
| 2026-05-06 08:02 | 49.47765 | -107.70221 | 36225 ft | 416 kts | 322° |
| 2026-05-06 08:02 | 49.51891 | -107.76453 | 36219 ft | 416 kts | 322° |
| 2026-05-06 08:03 | 49.56013 | -107.82696 | 36234 ft | 415 kts | 322° |
| 2026-05-06 08:03 | 49.60123 | -107.88935 | 36221 ft | 416 kts | 322° |
| 2026-05-06 08:04 | 49.64237 | -107.95198 | 36220 ft | 415 kts | 322° |
| 2026-05-06 08:04 | 49.68367 | -108.01500 | 36227 ft | 415 kts | 322° |
| 2026-05-06 08:05 | 49.72449 | -108.07744 | 36216 ft | 415 kts | 322° |
| 2026-05-06 08:05 | 49.75956 | -108.13121 | 36236 ft | 415 kts | 322° |
| 2026-05-06 08:06 | 49.79042 | -108.17862 | 36234 ft | 415 kts | 322° |
| 2026-05-06 08:06 | 49.83153 | -108.24193 | 36229 ft | 415 kts | 322° |
| 2026-05-06 08:07 | 49.87213 | -108.30461 | 36199 ft | 415 kts | 322° |
| 2026-05-06 08:07 | 49.91286 | -108.36765 | 36211 ft | 415 kts | 322° |
| 2026-05-06 08:08 | 49.95386 | -108.43126 | 36207 ft | 415 kts | 322° |
| 2026-05-06 08:08 | 49.99431 | -108.49419 | 36211 ft | 414 kts | 322° |
| 2026-05-06 08:09 | 50.03394 | -108.55599 | 36238 ft | 414 kts | 322° |
| 2026-05-06 08:09 | 50.07467 | -108.61967 | 36244 ft | 413 kts | 322° |
| 2026-05-06 08:10 | 50.11485 | -108.68264 | 36236 ft | 413 kts | 322° |
| 2026-05-06 08:10 | 50.15536 | -108.74630 | 36231 ft | 413 kts | 322° |
| 2026-05-06 08:11 | 50.19598 | -108.81029 | 36220 ft | 413 kts | 322° |
| 2026-05-06 08:11 | 50.23543 | -108.87259 | 36215 ft | 412 kts | 322° |
| 2026-05-06 08:12 | 50.27575 | -108.93644 | 36211 ft | 412 kts | 322° |
| 2026-05-06 08:12 | 50.31564 | -108.99976 | 36207 ft | 412 kts | 322° |
| 2026-05-06 08:13 | 50.35579 | -109.06366 | 36222 ft | 411 kts | 322° |
| 2026-05-06 08:13 | 50.39528 | -109.12667 | 36215 ft | 410 kts | 322° |
| 2026-05-06 08:14 | 50.43481 | -109.18990 | 36215 ft | 410 kts | 322° |
| 2026-05-06 08:14 | 50.47391 | -109.25260 | 36227 ft | 408 kts | 322° |
| 2026-05-06 08:15 | 50.51328 | -109.31589 | 36216 ft | 408 kts | 322° |
| 2026-05-06 08:15 | 50.55235 | -109.37886 | 36219 ft | 407 kts | 322° |
| 2026-05-06 08:16 | 50.59106 | -109.44142 | 36220 ft | 406 kts | 322° |
| 2026-05-06 08:16 | 50.62956 | -109.50379 | 36214 ft | 405 kts | 322° |
| 2026-05-06 08:17 | 50.66826 | -109.56663 | 36219 ft | 404 kts | 322° |
| 2026-05-06 08:17 | 50.70741 | -109.63038 | 36234 ft | 403 kts | 322° |
| 2026-05-06 08:18 | 50.74621 | -109.69370 | 36203 ft | 403 kts | 322° |
| 2026-05-06 08:18 | 50.78460 | -109.75653 | 36216 ft | 403 kts | 322° |
| 2026-05-06 08:19 | 50.82355 | -109.82043 | 36232 ft | 401 kts | 321° |
| 2026-05-06 08:19 | 50.86211 | -109.88385 | 36222 ft | 401 kts | 321° |
| 2026-05-06 08:20 | 50.89995 | -109.94622 | 36215 ft | 401 kts | 321° |
| 2026-05-06 08:20 | 50.93997 | -110.00610 | 36184 ft | 392 kts | 332° |
| 2026-05-06 08:21 | 50.96298 | -110.02853 | 36285 ft | 385 kts | 335° |
| 2026-05-06 08:21 | 50.98641 | -110.04995 | 36190 ft | 389 kts | 334° |
| 2026-05-06 08:21 | 51.03081 | -110.09981 | 36176 ft | 393 kts | 328° |
| 2026-05-06 08:22 | 51.07355 | -110.15295 | 36203 ft | 392 kts | 329° |
| 2026-05-06 08:22 | 51.11690 | -110.20485 | 36223 ft | 391 kts | 329° |
| 2026-05-06 08:23 | 51.16069 | -110.25562 | 36220 ft | 390 kts | 330° |
| 2026-05-06 08:23 | 51.20459 | -110.30594 | 36210 ft | 390 kts | 330° |
| 2026-05-06 08:24 | 51.24839 | -110.35612 | 36203 ft | 390 kts | 330° |
| 2026-05-06 08:24 | 51.29226 | -110.40650 | 36202 ft | 390 kts | 330° |
| 2026-05-06 08:25 | 51.33526 | -110.45601 | 36208 ft | 390 kts | 330° |
| 2026-05-06 08:25 | 51.37936 | -110.50692 | 36209 ft | 390 kts | 330° |
| 2026-05-06 08:26 | 51.42305 | -110.55748 | 36205 ft | 390 kts | 330° |
| 2026-05-06 08:26 | 51.46608 | -110.60740 | 36217 ft | 390 kts | 329° |
| 2026-05-06 08:27 | 51.50967 | -110.65809 | 36233 ft | 389 kts | 329° |
| 2026-05-06 08:27 | 51.55228 | -110.70775 | 36229 ft | 389 kts | 329° |
| 2026-05-06 08:28 | 51.59517 | -110.75786 | 36229 ft | 389 kts | 329° |
| 2026-05-06 08:28 | 51.63728 | -110.80718 | 36226 ft | 389 kts | 329° |
| 2026-05-06 08:29 | 51.68016 | -110.85752 | 36213 ft | 389 kts | 329° |
| 2026-05-06 08:29 | 51.72314 | -110.90810 | 36223 ft | 388 kts | 329° |
| 2026-05-06 08:30 | 51.76610 | -110.95880 | 36159 ft | 384 kts | 329° |
| 2026-05-06 08:30 | 51.78785 | -110.98451 | 36006 ft | 385 kts | 329° |
| 2026-05-06 08:30 | 51.80886 | -111.00933 | 35764 ft | 389 kts | 329° |
| 2026-05-06 08:31 | 51.83094 | -111.03545 | 35505 ft | 391 kts | 329° |
| 2026-05-06 08:31 | 51.85179 | -111.06018 | 35277 ft | 390 kts | 329° |
| 2026-05-06 08:31 | 51.87340 | -111.08586 | 35029 ft | 389 kts | 329° |
| 2026-05-06 08:31 | 51.89531 | -111.11192 | 34794 ft | 389 kts | 329° |
| 2026-05-06 08:32 | 51.91667 | -111.13734 | 34557 ft | 390 kts | 329° |
| 2026-05-06 08:32 | 51.93860 | -111.16348 | 34319 ft | 390 kts | 329° |
| 2026-05-06 08:32 | 51.96048 | -111.18958 | 34063 ft | 390 kts | 329° |
| 2026-05-06 08:32 | 51.98208 | -111.21539 | 33789 ft | 391 kts | 328° |
| 2026-05-06 08:33 | 52.00396 | -111.24155 | 33528 ft | 392 kts | 328° |
| 2026-05-06 08:33 | 52.02591 | -111.26783 | 33260 ft | 393 kts | 328° |
| 2026-05-06 08:33 | 52.04726 | -111.29343 | 33002 ft | 394 kts | 328° |
| 2026-05-06 08:33 | 52.06927 | -111.31983 | 32493 ft | 400 kts | 328° |
| 2026-05-06 08:34 | 52.09175 | -111.34682 | 31944 ft | 404 kts | 328° |
| 2026-05-06 08:34 | 52.13697 | -111.40127 | 30961 ft | 409 kts | 328° |
| 2026-05-06 08:34 | 52.15940 | -111.42835 | 30511 ft | 411 kts | 328° |
| 2026-05-06 08:35 | 52.18269 | -111.45650 | 29965 ft | 413 kts | 327° |
| 2026-05-06 08:35 | 52.20556 | -111.48418 | 29411 ft | 415 kts | 327° |
| 2026-05-06 08:35 | 52.22780 | -111.51113 | 28894 ft | 417 kts | 327° |
| 2026-05-06 08:35 | 52.25088 | -111.53914 | 28357 ft | 419 kts | 327° |
| 2026-05-06 08:36 | 52.27450 | -111.56783 | 27830 ft | 421 kts | 327° |
| 2026-05-06 08:36 | 52.29787 | -111.59627 | 27314 ft | 423 kts | 327° |
| 2026-05-06 08:36 | 52.32166 | -111.62523 | 26681 ft | 428 kts | 327° |
| 2026-05-06 08:36 | 52.34488 | -111.65353 | 26059 ft | 431 kts | 326° |
| 2026-05-06 08:37 | 52.36102 | -111.67324 | 25670 ft | 432 kts | 326° |
| 2026-05-06 08:37 | 52.39267 | -111.71197 | 24853 ft | 428 kts | 326° |
| 2026-05-06 08:37 | 52.41620 | -111.74083 | 24296 ft | 425 kts | 326° |
| 2026-05-06 08:37 | 52.43996 | -111.77001 | 23695 ft | 423 kts | 326° |
| 2026-05-06 08:38 | 52.45541 | -111.78900 | 23250 ft | 421 kts | 326° |
| 2026-05-06 08:38 | 52.48638 | -111.82710 | 22345 ft | 417 kts | 326° |
| 2026-05-06 08:38 | 52.50178 | -111.84606 | 21897 ft | 415 kts | 326° |
| 2026-05-06 08:38 | 52.53238 | -111.88379 | 21054 ft | 411 kts | 326° |
| 2026-05-06 08:39 | 52.55510 | -111.91184 | 20427 ft | 409 kts | 326° |
| 2026-05-06 08:39 | 52.57782 | -111.93993 | 19807 ft | 406 kts | 325° |
| 2026-05-06 08:39 | 52.60004 | -111.96744 | 19217 ft | 404 kts | 325° |
| 2026-05-06 08:39 | 52.62252 | -111.99529 | 18624 ft | 403 kts | 325° |
| 2026-05-06 08:40 | 52.64463 | -112.02273 | 17977 ft | 400 kts | 325° |
| 2026-05-06 08:40 | 52.65934 | -112.04101 | 17541 ft | 397 kts | 325° |
| 2026-05-06 08:40 | 52.68123 | -112.06825 | 16886 ft | 393 kts | 325° |
| 2026-05-06 08:40 | 52.70301 | -112.09540 | 16242 ft | 390 kts | 325° |
| 2026-05-06 08:41 | 52.72458 | -112.12231 | 15611 ft | 387 kts | 325° |
| 2026-05-06 08:41 | 52.74605 | -112.14912 | 14998 ft | 384 kts | 325° |
| 2026-05-06 08:41 | 52.76692 | -112.17521 | 14405 ft | 380 kts | 325° |
| 2026-05-06 08:41 | 52.78786 | -112.20144 | 13788 ft | 378 kts | 325° |
| 2026-05-06 08:42 | 52.80868 | -112.22752 | 13128 ft | 376 kts | 324° |
| 2026-05-06 08:42 | 52.82943 | -112.25354 | 12481 ft | 375 kts | 324° |
| 2026-05-06 08:42 | 52.85001 | -112.27939 | 11849 ft | 374 kts | 324° |
| 2026-05-06 08:42 | 52.87067 | -112.30536 | 11220 ft | 373 kts | 324° |
| 2026-05-06 08:43 | 52.89106 | -112.33105 | 10619 ft | 372 kts | 323° |
| 2026-05-06 08:43 | 52.91172 | -112.35713 | 10349 ft | 365 kts | 323° |
| 2026-05-06 08:43 | 52.93150 | -112.38214 | 10198 ft | 358 kts | 323° |
| 2026-05-06 08:43 | 52.95111 | -112.40696 | 9959 ft | 341 kts | 323° |
| 2026-05-06 08:44 | 52.96932 | -112.43004 | 9948 ft | 319 kts | 323° |
| 2026-05-06 08:44 | 52.98626 | -112.45152 | 9936 ft | 300 kts | 324° |
| 2026-05-06 08:44 | 53.00218 | -112.47164 | 9912 ft | 282 kts | 323° |
| 2026-05-06 08:44 | 53.01709 | -112.49093 | 9909 ft | 266 kts | 318° |
| 2026-05-06 08:45 | 53.02787 | -112.51505 | 9981 ft | 249 kts | 303° |
| 2026-05-06 08:45 | 53.03591 | -112.53996 | 9902 ft | 244 kts | 295° |
| 2026-05-06 08:45 | 53.04114 | -112.56661 | 9941 ft | 244 kts | 288° |
| 2026-05-06 08:45 | 53.04535 | -112.59411 | 9941 ft | 249 kts | 287° |
| 2026-05-06 08:46 | 53.04947 | -112.62219 | 9924 ft | 254 kts | 287° |
| 2026-05-06 08:46 | 53.05368 | -112.65071 | 9925 ft | 254 kts | 287° |
| 2026-05-06 08:46 | 53.05794 | -112.67922 | 9918 ft | 253 kts | 287° |
| 2026-05-06 08:46 | 53.06228 | -112.70787 | 9792 ft | 256 kts | 287° |
| 2026-05-06 08:47 | 53.06667 | -112.73668 | 9680 ft | 255 kts | 287° |
| 2026-05-06 08:47 | 53.07093 | -112.76462 | 9571 ft | 252 kts | 287° |
| 2026-05-06 08:47 | 53.07529 | -112.79303 | 9475 ft | 251 kts | 287° |
| 2026-05-06 08:47 | 53.07959 | -112.82108 | 9389 ft | 250 kts | 287° |
| 2026-05-06 08:48 | 53.08394 | -112.84939 | 9158 ft | 254 kts | 287° |
| 2026-05-06 08:48 | 53.08837 | -112.87821 | 8684 ft | 264 kts | 286° |
| 2026-05-06 08:48 | 53.09289 | -112.90769 | 8341 ft | 262 kts | 286° |
| 2026-05-06 08:48 | 53.09731 | -112.93670 | 8098 ft | 256 kts | 285° |
| 2026-05-06 08:49 | 53.10165 | -112.96511 | 7833 ft | 253 kts | 285° |
| 2026-05-06 08:49 | 53.10592 | -112.99314 | 7576 ft | 250 kts | 285° |
| 2026-05-06 08:49 | 53.11008 | -113.02050 | 7324 ft | 247 kts | 285° |
| 2026-05-06 08:49 | 53.11403 | -113.04656 | 7132 ft | 245 kts | 285° |
| 2026-05-06 08:50 | 53.11823 | -113.07407 | 6922 ft | 246 kts | 285° |
| 2026-05-06 08:50 | 53.12250 | -113.10083 | 6884 ft | 242 kts | 285° |
| 2026-05-06 08:50 | 53.12694 | -113.12820 | 6934 ft | 240 kts | 285° |
| 2026-05-06 08:50 | 53.13113 | -113.15409 | 6905 ft | 228 kts | 285° |
| 2026-05-06 08:51 | 53.13508 | -113.17855 | 6901 ft | 214 kts | 285° |
| 2026-05-06 08:51 | 53.13880 | -113.20167 | 6879 ft | 200 kts | 285° |
| 2026-05-06 08:51 | 53.14236 | -113.22378 | 6825 ft | 196 kts | 285° |
| 2026-05-06 08:51 | 53.14592 | -113.24586 | 6646 ft | 201 kts | 285° |
| 2026-05-06 08:52 | 53.14949 | -113.26810 | 6436 ft | 206 kts | 285° |
| 2026-05-06 08:52 | 53.15319 | -113.29118 | 6146 ft | 206 kts | 284° |
| 2026-05-06 08:52 | 53.15683 | -113.31388 | 5930 ft | 199 kts | 283° |
| 2026-05-06 08:52 | 53.16037 | -113.33603 | 5669 ft | 194 kts | 283° |
| 2026-05-06 08:53 | 53.16412 | -113.35752 | 5421 ft | 196 kts | 291° |
| 2026-05-06 08:53 | 53.17277 | -113.37572 | 5143 ft | 201 kts | 316° |
| 2026-05-06 08:53 | 53.18228 | -113.38972 | 4951 ft | 202 kts | 314° |
| 2026-05-06 08:53 | 53.19241 | -113.40596 | 4694 ft | 202 kts | 312° |
| 2026-05-06 08:54 | 53.20243 | -113.42252 | 4431 ft | 202 kts | 311° |
| 2026-05-06 08:54 | 53.21244 | -113.43915 | 4175 ft | 204 kts | 311° |
| 2026-05-06 08:54 | 53.21872 | -113.44958 | 4006 ft | 204 kts | 311° |
| 2026-05-06 08:54 | 53.22866 | -113.46613 | 3740 ft | 205 kts | 311° |
| 2026-05-06 08:55 | 53.23881 | -113.48300 | 3479 ft | 208 kts | 310° |
| 2026-05-06 08:55 | 53.24905 | -113.50003 | 3314 ft | 206 kts | 312° |
| 2026-05-06 08:55 | 53.25910 | -113.51558 | 3186 ft | 200 kts | 315° |
| 2026-05-06 08:55 | 53.26609 | -113.52649 | 3066 ft | 193 kts | 312° |
| 2026-05-06 08:56 | 53.27358 | -113.53995 | 2822 ft | 192 kts | 308° |
| 2026-05-06 08:56 | 53.28063 | -113.55363 | 2677 ft | 182 kts | 314° |
| 2026-05-06 08:56 | 53.28782 | -113.56504 | 2526 ft | 168 kts | 316° |
| 2026-05-06 08:56 | 53.29448 | -113.57564 | 2407 ft | 155 kts | 316° |
| 2026-05-06 08:57 | 53.29941 | -113.58409 | 2385 ft | 58 kts | 313° |
| 2026-05-06 08:57 | 53.30188 | -113.58810 | 2386 ft | 43 kts | 327° |
| 2026-05-06 08:57 | 53.30454 | -113.58858 | 2386 ft | 34 kts | 0° |
| 2026-05-06 08:57 | 53.30540 | -113.58825 | 2383 ft | 9 kts | 49° |
| 2026-05-06 08:58 | 53.30558 | -113.58721 | 2383 ft | 15 kts | 109° |
| 2026-05-06 08:58 | 53.30503 | -113.58574 | 2385 ft | 15 kts | 129° |
| 2026-05-06 08:58 | 53.30455 | -113.58452 | 2383 ft | 8 kts | 95° |
| 2026-05-06 08:58 | 53.30474 | -113.58401 | 2387 ft | 0 kts | 71° |
| 2026-05-06 08:59 | 53.30474 | -113.58399 | 2387 ft | 2 kts | 85° |
| 2026-05-06 08:59 | 53.30471 | -113.58393 | 2383 ft | 1 kts | 123° |
| 2026-05-06 08:59 | 53.30467 | -113.58388 | 2383 ft | 1 kts | 134° |
| 2026-05-06 08:59 | 53.30410 | -113.58317 | 2385 ft | 6 kts | 128° |
| 2026-05-06 09:00 | 53.30408 | -113.58284 | 2383 ft | 0 kts | 79° |
| 2026-05-06 09:00 | 53.30406 | -113.58272 | 2383 ft | 1 kts | 117° |
| 2026-05-06 09:00 | 53.30393 | -113.58266 | 2383 ft | 2 kts | 171° |
| 2026-05-06 09:01 | 53.30380 | -113.58229 | 2383 ft | 12 kts | 87° |
| 2026-05-06 09:01 | 53.30425 | -113.58153 | 2385 ft | 7 kts | 37° |
| 2026-05-06 09:01 | 53.30429 | -113.58148 | 2383 ft | 0 kts | 37° |